Terminal Aerodrome Forecast
Issued by NWS Flagstaff, AZ

Home | Current Version | Previous Version | Text Only | Print | Product List | Glossary On
Versions: 1 2 3 4 5 6 7 8 9 10 11 12 13 14 15 16 17 18 19
000
FTUS45 KFGZ 042011 AAA
TAFINW
TAF AMD
KINW 042011Z 0420/0518 21012G20KT P6SM SCT050 SCT080 BKN140
      TEMPO 0420/0424 VRB20G30KT 4SM -TSRA BKN040CB
     FM050300 VRB06KT P6SM SCT080 BKN120=

USA.gov is the U.S. government's official web portal to all federal, state and local government web resources and services.